sensor_id;sensor_type;location;lat;lon;timestamp;P1;durP1;ratioP1;P2;durP2;ratioP2
74465;SDS011;62916;50.044;15.938;2023-04-25T00:00:07;1.00;;;0.90;;
74465;SDS011;62916;50.044;15.938;2023-04-25T00:02:39;1.60;;;0.80;;
74465;SDS011;62916;50.044;15.938;2023-04-25T00:05:10;0.80;;;0.80;;
74465;SDS011;62916;50.044;15.938;2023-04-25T00:07:43;1.20;;;0.80;;
74465;SDS011;62916;50.044;15.938;2023-04-25T00:10:13;1.20;;;0.80;;
74465;SDS011;62916;50.044;15.938;2023-04-25T00:12:44;0.80;;;0.80;;
74465;SDS011;62916;50.044;15.938;2023-04-25T00:15:15;0.90;;;0.90;;
74465;SDS011;62916;50.044;15.938;2023-04-25T00:17:47;0.90;;;0.70;;
74465;SDS011;62916;50.044;15.938;2023-04-25T00:20:20;0.90;;;0.80;;
74465;SDS011;62916;50.044;15.938;2023-04-25T00:22:52;0.70;;;0.70;;
74465;SDS011;62916;50.044;15.938;2023-04-25T00:25:24;1.00;;;0.90;;
74465;SDS011;62916;50.044;15.938;2023-04-25T00:27:55;1.60;;;0.90;;
74465;SDS011;62916;50.044;15.938;2023-04-25T00:30:26;1.00;;;0.90;;
74465;SDS011;62916;50.044;15.938;2023-04-25T00:32:57;0.60;;;0.40;;
74465;SDS011;62916;50.044;15.938;2023-04-25T00:35:28;1.20;;;0.70;;
74465;SDS011;62916;50.044;15.938;2023-04-25T00:37:58;0.80;;;0.60;;
74465;SDS011;62916;50.044;15.938;2023-04-25T00:40:29;3.20;;;1.20;;
74465;SDS011;62916;50.044;15.938;2023-04-25T00:43:00;0.90;;;0.80;;
74465;SDS011;62916;50.044;15.938;2023-04-25T00:45:32;0.80;;;0.80;;
74465;SDS011;62916;50.044;15.938;2023-04-25T00:48:07;0.80;;;0.80;;
74465;SDS011;62916;50.044;15.938;2023-04-25T00:50:38;1.00;;;0.60;;
74465;SDS011;62916;50.044;15.938;2023-04-25T00:53:09;0.60;;;0.60;;
74465;SDS011;62916;50.044;15.938;2023-04-25T00:55:39;1.30;;;0.80;;
74465;SDS011;62916;50.044;15.938;2023-04-25T00:58:10;1.00;;;0.80;;
74465;SDS011;62916;50.044;15.938;2023-04-25T01:00:41;1.40;;;0.90;;
74465;SDS011;62916;50.044;15.938;2023-04-25T01:03:13;1.10;;;1.00;;
74465;SDS011;62916;50.044;15.938;2023-04-25T01:05:45;0.80;;;0.60;;
74465;SDS011;62916;50.044;15.938;2023-04-25T01:08:16;1.10;;;0.70;;
74465;SDS011;62916;50.044;15.938;2023-04-25T01:10:49;0.80;;;0.60;;
74465;SDS011;62916;50.044;15.938;2023-04-25T01:13:20;2.00;;;0.70;;
74465;SDS011;62916;50.044;15.938;2023-04-25T01:15:51;1.20;;;0.70;;
74465;SDS011;62916;50.044;15.938;2023-04-25T01:18:22;0.80;;;0.80;;
74465;SDS011;62916;50.044;15.938;2023-04-25T01:20:53;1.10;;;0.90;;
74465;SDS011;62916;50.044;15.938;2023-04-25T01:23:24;0.70;;;0.70;;
74465;SDS011;62916;50.044;15.938;2023-04-25T01:25:55;1.40;;;0.80;;
74465;SDS011;62916;50.044;15.938;2023-04-25T01:28:26;0.80;;;0.60;;
74465;SDS011;62916;50.044;15.938;2023-04-25T01:30:58;1.00;;;0.70;;
74465;SDS011;62916;50.044;15.938;2023-04-25T01:33:30;1.00;;;0.90;;
74465;SDS011;62916;50.044;15.938;2023-04-25T01:36:00;0.70;;;0.60;;
74465;SDS011;62916;50.044;15.938;2023-04-25T01:38:32;1.20;;;1.10;;
74465;SDS011;62916;50.044;15.938;2023-04-25T01:41:04;1.30;;;0.70;;
74465;SDS011;62916;50.044;15.938;2023-04-25T01:43:35;0.70;;;0.70;;
74465;SDS011;62916;50.044;15.938;2023-04-25T01:46:06;0.80;;;0.80;;
74465;SDS011;62916;50.044;15.938;2023-04-25T01:48:37;2.00;;;0.80;;
74465;SDS011;62916;50.044;15.938;2023-04-25T01:51:09;0.90;;;0.70;;
74465;SDS011;62916;50.044;15.938;2023-04-25T01:53:40;0.70;;;0.60;;
74465;SDS011;62916;50.044;15.938;2023-04-25T01:56:11;1.20;;;0.90;;
74465;SDS011;62916;50.044;15.938;2023-04-25T01:58:42;0.80;;;0.60;;
74465;SDS011;62916;50.044;15.938;2023-04-25T02:01:13;1.10;;;0.80;;
74465;SDS011;62916;50.044;15.938;2023-04-25T02:03:43;1.20;;;0.70;;
74465;SDS011;62916;50.044;15.938;2023-04-25T02:06:14;1.50;;;0.70;;
74465;SDS011;62916;50.044;15.938;2023-04-25T02:08:45;0.90;;;0.70;;
74465;SDS011;62916;50.044;15.938;2023-04-25T02:11:16;0.70;;;0.70;;
74465;SDS011;62916;50.044;15.938;2023-04-25T02:13:47;0.50;;;0.50;;
74465;SDS011;62916;50.044;15.938;2023-04-25T02:16:18;1.10;;;1.00;;
74465;SDS011;62916;50.044;15.938;2023-04-25T02:18:49;1.60;;;0.60;;
74465;SDS011;62916;50.044;15.938;2023-04-25T02:21:21;1.30;;;0.70;;
74465;SDS011;62916;50.044;15.938;2023-04-25T02:23:52;0.90;;;0.90;;
74465;SDS011;62916;50.044;15.938;2023-04-25T02:26:23;1.10;;;0.80;;
74465;SDS011;62916;50.044;15.938;2023-04-25T02:28:54;1.10;;;1.00;;
74465;SDS011;62916;50.044;15.938;2023-04-25T02:31:25;0.70;;;0.50;;
74465;SDS011;62916;50.044;15.938;2023-04-25T02:33:56;1.20;;;0.60;;
74465;SDS011;62916;50.044;15.938;2023-04-25T02:36:26;1.00;;;0.90;;
74465;SDS011;62916;50.044;15.938;2023-04-25T02:38:59;1.90;;;0.70;;
74465;SDS011;62916;50.044;15.938;2023-04-25T02:41:30;1.10;;;0.60;;
74465;SDS011;62916;50.044;15.938;2023-04-25T02:44:01;0.80;;;0.60;;
74465;SDS011;62916;50.044;15.938;2023-04-25T02:46:32;1.70;;;0.50;;
74465;SDS011;62916;50.044;15.938;2023-04-25T02:49:06;1.10;;;0.70;;
74465;SDS011;62916;50.044;15.938;2023-04-25T02:51:37;0.80;;;0.60;;
74465;SDS011;62916;50.044;15.938;2023-04-25T02:54:08;1.20;;;0.70;;
74465;SDS011;62916;50.044;15.938;2023-04-25T02:56:39;0.90;;;0.60;;
74465;SDS011;62916;50.044;15.938;2023-04-25T02:59:10;0.60;;;0.60;;
74465;SDS011;62916;50.044;15.938;2023-04-25T03:01:40;1.00;;;0.60;;
74465;SDS011;62916;50.044;15.938;2023-04-25T03:04:11;0.50;;;0.50;;
74465;SDS011;62916;50.044;15.938;2023-04-25T03:06:42;1.70;;;0.60;;
74465;SDS011;62916;50.044;15.938;2023-04-25T03:09:13;0.70;;;0.70;;
74465;SDS011;62916;50.044;15.938;2023-04-25T03:11:44;0.80;;;0.50;;
74465;SDS011;62916;50.044;15.938;2023-04-25T03:14:15;1.20;;;0.70;;
74465;SDS011;62916;50.044;15.938;2023-04-25T03:16:46;0.50;;;0.50;;
74465;SDS011;62916;50.044;15.938;2023-04-25T03:19:17;0.60;;;0.60;;
74465;SDS011;62916;50.044;15.938;2023-04-25T03:21:48;0.90;;;0.60;;
74465;SDS011;62916;50.044;15.938;2023-04-25T03:24:19;1.00;;;0.70;;
74465;SDS011;62916;50.044;15.938;2023-04-25T03:26:50;1.00;;;0.90;;
74465;SDS011;62916;50.044;15.938;2023-04-25T03:29:21;1.50;;;0.70;;
74465;SDS011;62916;50.044;15.938;2023-04-25T03:31:54;0.60;;;0.60;;
74465;SDS011;62916;50.044;15.938;2023-04-25T03:34:25;0.90;;;0.60;;
74465;SDS011;62916;50.044;15.938;2023-04-25T03:36:56;1.20;;;0.60;;
74465;SDS011;62916;50.044;15.938;2023-04-25T03:39:27;0.60;;;0.60;;
74465;SDS011;62916;50.044;15.938;2023-04-25T03:41:58;0.50;;;0.40;;
74465;SDS011;62916;50.044;15.938;2023-04-25T03:44:30;0.50;;;0.50;;
74465;SDS011;62916;50.044;15.938;2023-04-25T03:47:01;0.60;;;0.50;;
74465;SDS011;62916;50.044;15.938;2023-04-25T03:49:33;0.70;;;0.70;;
74465;SDS011;62916;50.044;15.938;2023-04-25T03:52:05;1.00;;;0.80;;
74465;SDS011;62916;50.044;15.938;2023-04-25T03:54:36;0.80;;;0.60;;
74465;SDS011;62916;50.044;15.938;2023-04-25T03:57:07;0.70;;;0.60;;
74465;SDS011;62916;50.044;15.938;2023-04-25T03:59:38;0.70;;;0.70;;
74465;SDS011;62916;50.044;15.938;2023-04-25T04:02:08;1.60;;;0.90;;
74465;SDS011;62916;50.044;15.938;2023-04-25T04:04:39;0.90;;;0.80;;
74465;SDS011;62916;50.044;15.938;2023-04-25T04:07:12;1.20;;;0.80;;
74465;SDS011;62916;50.044;15.938;2023-04-25T04:09:43;1.60;;;1.00;;
74465;SDS011;62916;50.044;15.938;2023-04-25T04:12:13;6.00;;;1.00;;
74465;SDS011;62916;50.044;15.938;2023-04-25T04:14:44;6.20;;;1.40;;
74465;SDS011;62916;50.044;15.938;2023-04-25T04:17:15;7.40;;;1.60;;
74465;SDS011;62916;50.044;15.938;2023-04-25T04:19:45;7.30;;;1.60;;
74465;SDS011;62916;50.044;15.938;2023-04-25T04:22:17;4.00;;;1.30;;
74465;SDS011;62916;50.044;15.938;2023-04-25T04:24:48;23.20;;;2.70;;
74465;SDS011;62916;50.044;15.938;2023-04-25T04:27:19;19.60;;;2.30;;
74465;SDS011;62916;50.044;15.938;2023-04-25T04:29:50;22.50;;;3.10;;
74465;SDS011;62916;50.044;15.938;2023-04-25T04:32:21;16.00;;;3.20;;
74465;SDS011;62916;50.044;15.938;2023-04-25T04:34:53;15.50;;;2.60;;
74465;SDS011;62916;50.044;15.938;2023-04-25T04:37:24;15.50;;;2.30;;
74465;SDS011;62916;50.044;15.938;2023-04-25T04:39:54;14.80;;;2.20;;
74465;SDS011;62916;50.044;15.938;2023-04-25T04:42:25;13.60;;;2.30;;
74465;SDS011;62916;50.044;15.938;2023-04-25T04:44:56;16.90;;;2.40;;
74465;SDS011;62916;50.044;15.938;2023-04-25T04:47:29;12.50;;;2.00;;
74465;SDS011;62916;50.044;15.938;2023-04-25T04:50:00;11.40;;;1.80;;
74465;SDS011;62916;50.044;15.938;2023-04-25T04:52:31;8.60;;;1.70;;
74465;SDS011;62916;50.044;15.938;2023-04-25T04:55:03;10.70;;;2.10;;
74465;SDS011;62916;50.044;15.938;2023-04-25T04:57:35;7.80;;;2.30;;
74465;SDS011;62916;50.044;15.938;2023-04-25T05:00:09;12.50;;;2.20;;
74465;SDS011;62916;50.044;15.938;2023-04-25T05:02:41;13.40;;;2.30;;
74465;SDS011;62916;50.044;15.938;2023-04-25T05:05:12;9.40;;;1.70;;
74465;SDS011;62916;50.044;15.938;2023-04-25T05:07:43;11.00;;;2.00;;
74465;SDS011;62916;50.044;15.938;2023-04-25T05:10:14;9.50;;;1.90;;
74465;SDS011;62916;50.044;15.938;2023-04-25T05:12:45;6.40;;;1.60;;
74465;SDS011;62916;50.044;15.938;2023-04-25T05:15:16;11.30;;;1.90;;
74465;SDS011;62916;50.044;15.938;2023-04-25T05:17:47;10.50;;;2.20;;
74465;SDS011;62916;50.044;15.938;2023-04-25T05:20:18;8.20;;;2.10;;
74465;SDS011;62916;50.044;15.938;2023-04-25T05:22:49;12.40;;;1.70;;
74465;SDS011;62916;50.044;15.938;2023-04-25T05:25:20;6.70;;;2.00;;
74465;SDS011;62916;50.044;15.938;2023-04-25T05:27:51;13.10;;;1.90;;
74465;SDS011;62916;50.044;15.938;2023-04-25T05:30:22;8.90;;;1.70;;
74465;SDS011;62916;50.044;15.938;2023-04-25T05:32:53;6.90;;;1.60;;
74465;SDS011;62916;50.044;15.938;2023-04-25T05:35:24;5.40;;;1.20;;
74465;SDS011;62916;50.044;15.938;2023-04-25T05:37:55;7.90;;;2.70;;
74465;SDS011;62916;50.044;15.938;2023-04-25T05:40:26;9.40;;;1.70;;
74465;SDS011;62916;50.044;15.938;2023-04-25T05:42:58;6.00;;;1.40;;
74465;SDS011;62916;50.044;15.938;2023-04-25T05:45:29;8.50;;;1.80;;
74465;SDS011;62916;50.044;15.938;2023-04-25T05:48:00;3.40;;;1.10;;
74465;SDS011;62916;50.044;15.938;2023-04-25T05:50:31;5.50;;;1.50;;
74465;SDS011;62916;50.044;15.938;2023-04-25T05:53:02;5.90;;;1.30;;
74465;SDS011;62916;50.044;15.938;2023-04-25T05:55:34;3.80;;;1.30;;
74465;SDS011;62916;50.044;15.938;2023-04-25T05:58:05;6.10;;;1.40;;
74465;SDS011;62916;50.044;15.938;2023-04-25T06:00:36;2.80;;;1.80;;
74465;SDS011;62916;50.044;15.938;2023-04-25T06:03:09;7.80;;;1.50;;
74465;SDS011;62916;50.044;15.938;2023-04-25T06:05:46;5.70;;;1.40;;
74465;SDS011;62916;50.044;15.938;2023-04-25T06:08:17;3.20;;;1.10;;
74465;SDS011;62916;50.044;15.938;2023-04-25T06:10:48;4.70;;;1.30;;
74465;SDS011;62916;50.044;15.938;2023-04-25T06:13:19;4.90;;;1.20;;
74465;SDS011;62916;50.044;15.938;2023-04-25T06:15:50;3.70;;;1.50;;
74465;SDS011;62916;50.044;15.938;2023-04-25T06:18:21;6.50;;;1.60;;
74465;SDS011;62916;50.044;15.938;2023-04-25T06:20:52;3.00;;;1.10;;
74465;SDS011;62916;50.044;15.938;2023-04-25T06:23:23;4.40;;;1.20;;
74465;SDS011;62916;50.044;15.938;2023-04-25T06:25:54;5.30;;;1.50;;
74465;SDS011;62916;50.044;15.938;2023-04-25T06:28:25;4.20;;;1.30;;
74465;SDS011;62916;50.044;15.938;2023-04-25T06:30:56;5.60;;;1.50;;
74465;SDS011;62916;50.044;15.938;2023-04-25T06:33:27;6.60;;;1.40;;
74465;SDS011;62916;50.044;15.938;2023-04-25T06:35:58;2.90;;;1.20;;
74465;SDS011;62916;50.044;15.938;2023-04-25T06:38:29;5.40;;;1.80;;
74465;SDS011;62916;50.044;15.938;2023-04-25T06:40:59;2.60;;;1.10;;
74465;SDS011;62916;50.044;15.938;2023-04-25T06:43:31;3.50;;;1.10;;
74465;SDS011;62916;50.044;15.938;2023-04-25T06:46:02;2.30;;;0.90;;
74465;SDS011;62916;50.044;15.938;2023-04-25T06:48:33;3.40;;;1.80;;
74465;SDS011;62916;50.044;15.938;2023-04-25T06:51:04;5.40;;;1.00;;
74465;SDS011;62916;50.044;15.938;2023-04-25T06:53:35;3.30;;;1.20;;
74465;SDS011;62916;50.044;15.938;2023-04-25T06:56:06;2.40;;;1.10;;
74465;SDS011;62916;50.044;15.938;2023-04-25T06:58:38;4.00;;;1.40;;
74465;SDS011;62916;50.044;15.938;2023-04-25T07:01:09;2.30;;;1.30;;
74465;SDS011;62916;50.044;15.938;2023-04-25T07:03:40;2.80;;;1.10;;
74465;SDS011;62916;50.044;15.938;2023-04-25T07:06:11;3.20;;;1.00;;
74465;SDS011;62916;50.044;15.938;2023-04-25T07:08:42;1.90;;;1.20;;
74465;SDS011;62916;50.044;15.938;2023-04-25T07:11:13;2.80;;;1.00;;
74465;SDS011;62916;50.044;15.938;2023-04-25T07:13:44;4.20;;;1.20;;
74465;SDS011;62916;50.044;15.938;2023-04-25T07:16:17;2.10;;;1.10;;
74465;SDS011;62916;50.044;15.938;2023-04-25T07:18:48;2.10;;;1.20;;
74465;SDS011;62916;50.044;15.938;2023-04-25T07:21:19;2.40;;;0.90;;
74465;SDS011;62916;50.044;15.938;2023-04-25T07:23:50;5.70;;;1.60;;
74465;SDS011;62916;50.044;15.938;2023-04-25T07:26:21;3.40;;;1.40;;
74465;SDS011;62916;50.044;15.938;2023-04-25T07:28:52;3.10;;;1.00;;
74465;SDS011;62916;50.044;15.938;2023-04-25T07:31:23;1.80;;;0.90;;
74465;SDS011;62916;50.044;15.938;2023-04-25T07:33:54;3.10;;;1.20;;
74465;SDS011;62916;50.044;15.938;2023-04-25T07:36:28;2.50;;;1.30;;
74465;SDS011;62916;50.044;15.938;2023-04-25T07:38:59;4.30;;;1.70;;
74465;SDS011;62916;50.044;15.938;2023-04-25T07:41:30;5.50;;;1.60;;
74465;SDS011;62916;50.044;15.938;2023-04-25T07:44:02;2.50;;;1.20;;
74465;SDS011;62916;50.044;15.938;2023-04-25T07:46:34;1.50;;;1.10;;
74465;SDS011;62916;50.044;15.938;2023-04-25T07:49:05;2.90;;;1.20;;
74465;SDS011;62916;50.044;15.938;2023-04-25T07:51:36;1.60;;;1.30;;
74465;SDS011;62916;50.044;15.938;2023-04-25T07:54:07;2.30;;;1.40;;
74465;SDS011;62916;50.044;15.938;2023-04-25T07:56:38;2.90;;;1.50;;
74465;SDS011;62916;50.044;15.938;2023-04-25T07:59:20;2.40;;;1.20;;
74465;SDS011;62916;50.044;15.938;2023-04-25T08:01:51;3.70;;;1.40;;
74465;SDS011;62916;50.044;15.938;2023-04-25T08:04:22;2.00;;;1.30;;
74465;SDS011;62916;50.044;15.938;2023-04-25T08:06:53;2.50;;;1.20;;
74465;SDS011;62916;50.044;15.938;2023-04-25T08:09:24;2.60;;;1.40;;
74465;SDS011;62916;50.044;15.938;2023-04-25T08:11:55;2.20;;;1.50;;
74465;SDS011;62916;50.044;15.938;2023-04-25T08:14:26;1.90;;;1.00;;
74465;SDS011;62916;50.044;15.938;2023-04-25T08:17:03;3.00;;;1.20;;
74465;SDS011;62916;50.044;15.938;2023-04-25T08:19:34;4.00;;;1.10;;
74465;SDS011;62916;50.044;15.938;2023-04-25T08:22:05;4.20;;;1.40;;
74465;SDS011;62916;50.044;15.938;2023-04-25T08:24:36;2.50;;;1.20;;
74465;SDS011;62916;50.044;15.938;2023-04-25T08:27:07;1.50;;;1.00;;
74465;SDS011;62916;50.044;15.938;2023-04-25T08:29:39;2.30;;;1.40;;
74465;SDS011;62916;50.044;15.938;2023-04-25T08:32:10;2.50;;;1.00;;
74465;SDS011;62916;50.044;15.938;2023-04-25T08:34:41;2.30;;;1.20;;
74465;SDS011;62916;50.044;15.938;2023-04-25T08:37:12;2.30;;;1.30;;
74465;SDS011;62916;50.044;15.938;2023-04-25T08:39:43;1.90;;;0.90;;
74465;SDS011;62916;50.044;15.938;2023-04-25T08:42:15;1.60;;;1.10;;
74465;SDS011;62916;50.044;15.938;2023-04-25T08:44:47;2.00;;;1.40;;
74465;SDS011;62916;50.044;15.938;2023-04-25T08:47:19;4.20;;;1.70;;
74465;SDS011;62916;50.044;15.938;2023-04-25T08:49:53;2.10;;;1.10;;
74465;SDS011;62916;50.044;15.938;2023-04-25T08:52:24;1.20;;;1.10;;
74465;SDS011;62916;50.044;15.938;2023-04-25T08:55:01;1.60;;;1.10;;
74465;SDS011;62916;50.044;15.938;2023-04-25T08:57:33;4.60;;;1.60;;
74465;SDS011;62916;50.044;15.938;2023-04-25T09:00:07;1.70;;;1.10;;
74465;SDS011;62916;50.044;15.938;2023-04-25T09:05:12;1.20;;;1.10;;
74465;SDS011;62916;50.044;15.938;2023-04-25T09:07:46;2.70;;;1.40;;
74465;SDS011;62916;50.044;15.938;2023-04-25T09:10:19;2.30;;;1.80;;
74465;SDS011;62916;50.044;15.938;2023-04-25T09:13:03;2.40;;;1.60;;
74465;SDS011;62916;50.044;15.938;2023-04-25T09:15:46;2.00;;;1.70;;
74465;SDS011;62916;50.044;15.938;2023-04-25T09:18:25;3.20;;;2.30;;
74465;SDS011;62916;50.044;15.938;2023-04-25T09:20:58;2.20;;;1.90;;
74465;SDS011;62916;50.044;15.938;2023-04-25T09:23:41;3.60;;;2.80;;
74465;SDS011;62916;50.044;15.938;2023-04-25T09:26:15;5.60;;;3.50;;
74465;SDS011;62916;50.044;15.938;2023-04-25T09:28:47;4.70;;;2.90;;
74465;SDS011;62916;50.044;15.938;2023-04-25T09:31:22;5.00;;;3.40;;
74465;SDS011;62916;50.044;15.938;2023-04-25T09:33:59;5.50;;;3.60;;
74465;SDS011;62916;50.044;15.938;2023-04-25T09:36:31;5.90;;;3.80;;
74465;SDS011;62916;50.044;15.938;2023-04-25T09:39:04;5.50;;;4.10;;
74465;SDS011;62916;50.044;15.938;2023-04-25T09:41:44;6.00;;;4.90;;
74465;SDS011;62916;50.044;15.938;2023-04-25T09:44:19;4.60;;;3.70;;
74465;SDS011;62916;50.044;15.938;2023-04-25T09:46:55;5.20;;;3.90;;
74465;SDS011;62916;50.044;15.938;2023-04-25T09:49:27;6.20;;;4.30;;
74465;SDS011;62916;50.044;15.938;2023-04-25T09:51:58;5.30;;;4.30;;
74465;SDS011;62916;50.044;15.938;2023-04-25T09:54:29;7.90;;;5.00;;
74465;SDS011;62916;50.044;15.938;2023-04-25T09:57:00;7.30;;;4.60;;
74465;SDS011;62916;50.044;15.938;2023-04-25T09:59:43;6.50;;;4.70;;
74465;SDS011;62916;50.044;15.938;2023-04-25T10:02:16;5.70;;;5.00;;
74465;SDS011;62916;50.044;15.938;2023-04-25T10:04:48;5.10;;;4.20;;
74465;SDS011;62916;50.044;15.938;2023-04-25T10:07:23;5.90;;;4.40;;
74465;SDS011;62916;50.044;15.938;2023-04-25T10:09:58;7.80;;;5.00;;
74465;SDS011;62916;50.044;15.938;2023-04-25T10:12:31;6.80;;;5.10;;
74465;SDS011;62916;50.044;15.938;2023-04-25T10:15:03;5.40;;;4.20;;
74465;SDS011;62916;50.044;15.938;2023-04-25T10:17:37;5.40;;;4.30;;
74465;SDS011;62916;50.044;15.938;2023-04-25T10:20:09;5.40;;;4.40;;
74465;SDS011;62916;50.044;15.938;2023-04-25T10:22:43;7.00;;;4.80;;
74465;SDS011;62916;50.044;15.938;2023-04-25T10:25:17;6.40;;;4.40;;
74465;SDS011;62916;50.044;15.938;2023-04-25T10:27:48;5.90;;;4.30;;
74465;SDS011;62916;50.044;15.938;2023-04-25T10:30:20;7.10;;;4.80;;
74465;SDS011;62916;50.044;15.938;2023-04-25T10:32:52;6.70;;;4.80;;
74465;SDS011;62916;50.044;15.938;2023-04-25T10:35:26;7.10;;;4.60;;
74465;SDS011;62916;50.044;15.938;2023-04-25T10:38:04;5.40;;;4.40;;
74465;SDS011;62916;50.044;15.938;2023-04-25T10:40:38;6.30;;;4.40;;
74465;SDS011;62916;50.044;15.938;2023-04-25T10:46:15;5.90;;;4.10;;
74465;SDS011;62916;50.044;15.938;2023-04-25T10:48:48;6.60;;;4.40;;
74465;SDS011;62916;50.044;15.938;2023-04-25T10:51:21;5.10;;;4.60;;
74465;SDS011;62916;50.044;15.938;2023-04-25T10:54:00;7.30;;;4.50;;
74465;SDS011;62916;50.044;15.938;2023-04-25T10:56:32;5.60;;;4.10;;
74465;SDS011;62916;50.044;15.938;2023-04-25T10:59:08;6.10;;;4.80;;
74465;SDS011;62916;50.044;15.938;2023-04-25T11:01:40;6.40;;;4.70;;
74465;SDS011;62916;50.044;15.938;2023-04-25T11:04:22;5.10;;;4.20;;
74465;SDS011;62916;50.044;15.938;2023-04-25T11:09:47;5.30;;;4.00;;
74465;SDS011;62916;50.044;15.938;2023-04-25T11:12:18;5.30;;;4.80;;
74465;SDS011;62916;50.044;15.938;2023-04-25T11:14:49;5.70;;;4.00;;
74465;SDS011;62916;50.044;15.938;2023-04-25T11:17:26;5.80;;;4.30;;
74465;SDS011;62916;50.044;15.938;2023-04-25T11:19:58;5.80;;;4.40;;
74465;SDS011;62916;50.044;15.938;2023-04-25T11:22:30;4.70;;;3.90;;
74465;SDS011;62916;50.044;15.938;2023-04-25T11:25:06;5.10;;;3.80;;
74465;SDS011;62916;50.044;15.938;2023-04-25T11:27:39;4.90;;;3.80;;
74465;SDS011;62916;50.044;15.938;2023-04-25T11:30:21;5.00;;;4.10;;
74465;SDS011;62916;50.044;15.938;2023-04-25T11:32:53;6.00;;;4.10;;
74465;SDS011;62916;50.044;15.938;2023-04-25T11:35:24;4.30;;;3.40;;
74465;SDS011;62916;50.044;15.938;2023-04-25T11:37:55;5.70;;;3.90;;
74465;SDS011;62916;50.044;15.938;2023-04-25T11:40:27;4.70;;;4.20;;
74465;SDS011;62916;50.044;15.938;2023-04-25T11:42:59;6.30;;;3.90;;
74465;SDS011;62916;50.044;15.938;2023-04-25T11:45:30;4.20;;;3.70;;
74465;SDS011;62916;50.044;15.938;2023-04-25T11:48:02;5.20;;;4.00;;
74465;SDS011;62916;50.044;15.938;2023-04-25T11:50:33;4.50;;;3.30;;
74465;SDS011;62916;50.044;15.938;2023-04-25T11:53:04;4.70;;;3.90;;
74465;SDS011;62916;50.044;15.938;2023-04-25T11:55:36;4.80;;;4.10;;
74465;SDS011;62916;50.044;15.938;2023-04-25T11:58:08;4.70;;;3.80;;
74465;SDS011;62916;50.044;15.938;2023-04-25T12:00:42;4.90;;;3.60;;
74465;SDS011;62916;50.044;15.938;2023-04-25T12:03:18;4.60;;;3.70;;
74465;SDS011;62916;50.044;15.938;2023-04-25T12:05:54;5.40;;;4.10;;
74465;SDS011;62916;50.044;15.938;2023-04-25T12:08:33;4.70;;;3.60;;
74465;SDS011;62916;50.044;15.938;2023-04-25T12:11:05;4.80;;;3.60;;
74465;SDS011;62916;50.044;15.938;2023-04-25T12:13:51;6.10;;;3.70;;
74465;SDS011;62916;50.044;15.938;2023-04-25T12:16:22;4.40;;;4.00;;
74465;SDS011;62916;50.044;15.938;2023-04-25T12:18:53;4.40;;;3.40;;
74465;SDS011;62916;50.044;15.938;2023-04-25T12:21:25;4.40;;;3.80;;
74465;SDS011;62916;50.044;15.938;2023-04-25T12:24:12;4.40;;;3.50;;
74465;SDS011;62916;50.044;15.938;2023-04-25T12:26:50;3.90;;;3.50;;
74465;SDS011;62916;50.044;15.938;2023-04-25T12:29:23;3.90;;;3.50;;
74465;SDS011;62916;50.044;15.938;2023-04-25T12:32:01;4.20;;;3.40;;
74465;SDS011;62916;50.044;15.938;2023-04-25T12:34:33;3.90;;;3.40;;
74465;SDS011;62916;50.044;15.938;2023-04-25T12:37:04;5.30;;;3.70;;
74465;SDS011;62916;50.044;15.938;2023-04-25T12:39:35;3.60;;;3.00;;
74465;SDS011;62916;50.044;15.938;2023-04-25T12:42:06;4.00;;;3.60;;
74465;SDS011;62916;50.044;15.938;2023-04-25T12:44:40;4.00;;;3.60;;
74465;SDS011;62916;50.044;15.938;2023-04-25T12:47:11;4.10;;;3.40;;
74465;SDS011;62916;50.044;15.938;2023-04-25T12:49:43;4.40;;;3.30;;
74465;SDS011;62916;50.044;15.938;2023-04-25T12:52:14;4.10;;;3.40;;
74465;SDS011;62916;50.044;15.938;2023-04-25T12:54:45;4.90;;;4.00;;
74465;SDS011;62916;50.044;15.938;2023-04-25T12:57:16;3.60;;;3.20;;
74465;SDS011;62916;50.044;15.938;2023-04-25T12:59:48;4.30;;;3.90;;
74465;SDS011;62916;50.044;15.938;2023-04-25T13:02:18;4.20;;;3.50;;
74465;SDS011;62916;50.044;15.938;2023-04-25T13:04:50;3.90;;;3.50;;
74465;SDS011;62916;50.044;15.938;2023-04-25T13:07:21;3.90;;;3.40;;
74465;SDS011;62916;50.044;15.938;2023-04-25T13:09:52;3.80;;;3.40;;
74465;SDS011;62916;50.044;15.938;2023-04-25T13:12:23;3.90;;;3.50;;
74465;SDS011;62916;50.044;15.938;2023-04-25T13:14:54;4.70;;;3.50;;
74465;SDS011;62916;50.044;15.938;2023-04-25T13:17:25;4.40;;;3.00;;
74465;SDS011;62916;50.044;15.938;2023-04-25T13:19:56;4.20;;;3.30;;
74465;SDS011;62916;50.044;15.938;2023-04-25T13:22:27;3.50;;;3.00;;
74465;SDS011;62916;50.044;15.938;2023-04-25T13:24:58;3.80;;;3.20;;
74465;SDS011;62916;50.044;15.938;2023-04-25T13:27:29;4.00;;;3.30;;
74465;SDS011;62916;50.044;15.938;2023-04-25T13:30:02;4.10;;;3.30;;
74465;SDS011;62916;50.044;15.938;2023-04-25T13:32:36;4.20;;;3.80;;
74465;SDS011;62916;50.044;15.938;2023-04-25T13:35:08;3.90;;;3.30;;
74465;SDS011;62916;50.044;15.938;2023-04-25T13:37:41;4.10;;;3.70;;
74465;SDS011;62916;50.044;15.938;2023-04-25T13:40:13;4.10;;;3.00;;
74465;SDS011;62916;50.044;15.938;2023-04-25T13:42:44;3.80;;;3.20;;
74465;SDS011;62916;50.044;15.938;2023-04-25T13:45:15;3.10;;;2.70;;
74465;SDS011;62916;50.044;15.938;2023-04-25T13:47:46;3.80;;;2.90;;
74465;SDS011;62916;50.044;15.938;2023-04-25T13:50:17;3.60;;;2.90;;
74465;SDS011;62916;50.044;15.938;2023-04-25T13:52:49;4.00;;;3.30;;
74465;SDS011;62916;50.044;15.938;2023-04-25T13:55:20;3.40;;;2.70;;
74465;SDS011;62916;50.044;15.938;2023-04-25T13:57:52;3.20;;;2.80;;
74465;SDS011;62916;50.044;15.938;2023-04-25T14:00:23;3.20;;;2.90;;
74465;SDS011;62916;50.044;15.938;2023-04-25T14:02:54;3.50;;;3.00;;
74465;SDS011;62916;50.044;15.938;2023-04-25T14:05:25;3.20;;;2.60;;
74465;SDS011;62916;50.044;15.938;2023-04-25T14:07:56;3.00;;;2.70;;
74465;SDS011;62916;50.044;15.938;2023-04-25T14:10:29;3.90;;;3.10;;
74465;SDS011;62916;50.044;15.938;2023-04-25T14:13:00;3.60;;;2.70;;
74465;SDS011;62916;50.044;15.938;2023-04-25T14:15:37;3.50;;;3.10;;
74465;SDS011;62916;50.044;15.938;2023-04-25T14:18:08;3.80;;;2.90;;
74465;SDS011;62916;50.044;15.938;2023-04-25T14:20:39;4.00;;;2.80;;
74465;SDS011;62916;50.044;15.938;2023-04-25T14:23:10;4.30;;;3.40;;
74465;SDS011;62916;50.044;15.938;2023-04-25T14:25:41;3.40;;;3.10;;
74465;SDS011;62916;50.044;15.938;2023-04-25T14:28:12;3.00;;;2.70;;
74465;SDS011;62916;50.044;15.938;2023-04-25T14:30:44;3.00;;;2.70;;
74465;SDS011;62916;50.044;15.938;2023-04-25T14:33:15;3.70;;;3.40;;
74465;SDS011;62916;50.044;15.938;2023-04-25T14:35:46;3.20;;;2.60;;
74465;SDS011;62916;50.044;15.938;2023-04-25T14:38:17;6.80;;;3.50;;
74465;SDS011;62916;50.044;15.938;2023-04-25T14:40:51;23.60;;;5.00;;
74465;SDS011;62916;50.044;15.938;2023-04-25T14:43:23;23.50;;;4.90;;
74465;SDS011;62916;50.044;15.938;2023-04-25T14:45:54;17.80;;;5.00;;
74465;SDS011;62916;50.044;15.938;2023-04-25T14:48:25;24.30;;;4.80;;
74465;SDS011;62916;50.044;15.938;2023-04-25T14:50:56;17.20;;;4.60;;
74465;SDS011;62916;50.044;15.938;2023-04-25T14:53:28;16.70;;;4.40;;
74465;SDS011;62916;50.044;15.938;2023-04-25T14:55:59;17.60;;;4.20;;
74465;SDS011;62916;50.044;15.938;2023-04-25T14:58:30;16.20;;;4.20;;
74465;SDS011;62916;50.044;15.938;2023-04-25T15:01:01;17.30;;;4.30;;
74465;SDS011;62916;50.044;15.938;2023-04-25T15:03:33;18.20;;;4.20;;
74465;SDS011;62916;50.044;15.938;2023-04-25T15:06:05;16.40;;;4.40;;
74465;SDS011;62916;50.044;15.938;2023-04-25T15:08:36;13.80;;;3.70;;